Weather reports worldwide

Advertisment
Lauwersoog aws, Netherlands (6277): temperature & dewpoint: 19.01.2020 19:00:00 - 25.01.2020 19:00:00 (CET)Lauwersoog aws, Netherlands (6277): temperature 5cm: 19.01.2020 19:00:00 - 25.01.2020 19:00:00 (CET)Lauwersoog aws, Netherlands (6277): wind speed & gusts: 19.01.2020 19:00:00 - 25.01.2020 19:00:00 (CET)Lauwersoog aws, Netherlands (6277): wind direction: 19.01.2020 19:00:00 - 25.01.2020 19:00:00 (CET)Lauwersoog aws, Netherlands (6277): precipitation: 19.01.2020 19:00:00 - 25.01.2020 19:00:00 (CET)
Date & Time tt [°C] td [°C] tt 5cm [°C] ff [km/h] ff [kn] fx [km/h] fx [kn] dd rr [mm]
25.01.2020 19:00:00 3,4 2,4 3,2 23 12 - - SSW -
25.01.2020 18:00:00 3,4 2,3 3,3 18 10 29 16 SSW 0,0
25.01.2020 17:00:00 3,4 2,3 3,3 25 14 32 18 S 0,0
25.01.2020 16:00:00 3,5 2,5 3,5 22 12 32 18 SSW 0,0
25.01.2020 15:00:00 3,6 2,8 3,7 18 10 32 18 SSW 0,0
25.01.2020 14:00:00 3,8 3,0 3,9 22 12 32 18 SSW 0,0
25.01.2020 13:00:00 3,8 3,0 4,0 25 14 36 19 SW 0,0
25.01.2020 12:00:00 3,8 3,2 3,9 22 12 32 18 SSW 0,0
25.01.2020 11:00:00 3,9 3,5 3,9 22 12 36 19 SSW 0,0
25.01.2020 10:00:00 3,8 3,5 3,8 22 12 32 18 SSW 0,0
25.01.2020 09:00:00 3,8 3,5 3,7 18 10 29 16 SSW 0,0
25.01.2020 08:00:00 3,8 3,5 3,7 18 10 29 16 SSW 0,1
25.01.2020 07:00:00 3,9 3,6 3,8 22 12 29 16 SSW 0,1
25.01.2020 06:00:00 4,0 3,7 3,9 18 10 29 16 SSW 0,1
25.01.2020 05:00:00 4,0 3,7 4,0 22 12 32 18 SSW 0,0
25.01.2020 04:00:00 4,1 3,8 4,1 22 12 29 16 SSW 0,0
25.01.2020 03:00:00 4,2 3,9 4,1 22 12 29 16 SSW 0,0
25.01.2020 02:00:00 4,2 3,9 4,1 18 10 29 16 SW 0,1
25.01.2020 01:00:00 4,2 3,8 4,1 22 12 32 18 SW 0,1
25.01.2020 00:00:00 4,2 3,9 4,1 22 12 32 18 SW 0,0
24.01.2020 23:00:00 4,1 3,8 4,0 18 10 25 14 SSW 0,0
24.01.2020 22:00:00 4,3 4,0 4,2 18 10 29 16 SSW 0,1
24.01.2020 21:00:00 4,3 4,0 4,2 18 10 29 16 SSW 0,1
24.01.2020 20:00:00 4,1 3,8 4,1 18 10 29 16 SSW 0,0
24.01.2020 19:00:00 4,0 3,6 4,0 18 10 29 16 SSW 0,0
24.01.2020 18:00:00 3,9 3,5 3,9 18 10 29 16 SSW 0,0
24.01.2020 17:00:00 3,9 3,3 3,9 18 10 32 18 SSW 0,0
24.01.2020 16:00:00 4,1 3,2 4,1 22 12 32 18 SSW 0,0
24.01.2020 15:00:00 4,0 3,1 4,0 18 10 36 19 SSW 0,0
24.01.2020 14:00:00 3,8 2,9 4,0 22 12 32 18 SSW 0,0
24.01.2020 13:00:00 3,6 2,7 3,8 22 12 32 18 SSW 0,0
24.01.2020 12:00:00 3,5 2,8 3,6 14 8 25 14 SSW 0,0
24.01.2020 11:00:00 3,3 2,7 3,4 18 10 29 16 SSW 0,0
24.01.2020 10:00:00 3,1 2,8 3,2 14 8 29 16 SSW 0,0
24.01.2020 09:00:00 3,1 2,8 3,0 14 8 25 14 SSW 0,0
24.01.2020 08:00:00 3,2 2,9 3,1 18 10 29 16 SW 0,0
24.01.2020 07:00:00 3,3 3,0 3,3 18 10 25 14 SSW 0,0
24.01.2020 06:00:00 3,3 3,0 3,3 18 10 25 14 SSW 0,0
24.01.2020 05:00:00 3,3 3,0 3,3 14 8 25 14 SSW 0,0
24.01.2020 04:00:00 3,3 3,0 3,3 14 8 22 12 SW 0,0
24.01.2020 03:00:00 3,3 3,1 3,3 11 6 22 12 SSW 0,0
24.01.2020 02:00:00 3,1 3,1 3,1 14 8 22 12 S 0,0
24.01.2020 01:00:00 3,2 2,9 3,2 14 8 18 10 S 0,0
24.01.2020 00:00:00 3,5 3,2 3,5 14 8 18 10 S 0,0
23.01.2020 23:00:00 3,7 3,4 3,7 14 8 22 12 S 0,0
23.01.2020 22:00:00 4,1 3,7 4,1 11 6 18 10 S 0,0
23.01.2020 21:00:00 4,6 3,9 4,6 11 6 18 10 S 0,0
23.01.2020 20:00:00 4,9 3,9 4,7 11 6 18 10 S 0,0
23.01.2020 19:00:00 5,0 4,2 4,8 11 6 18 10 S 0,0
23.01.2020 18:00:00 5,0 4,4 4,9 11 6 18 10 S 0,0
23.01.2020 17:00:00 5,1 4,3 5,0 14 8 18 10 SSW 0,0
23.01.2020 16:00:00 5,2 4,2 5,1 11 6 18 10 SSW 0,0
23.01.2020 15:00:00 5,3 4,6 5,3 14 8 18 10 S 0,0
23.01.2020 14:00:00 5,5 4,9 5,6 11 6 18 10 S 0,0
23.01.2020 13:00:00 5,3 4,9 5,4 7 4 11 6 SSW 0,0
23.01.2020 12:00:00 5,2 4,4 5,3 11 6 11 6 S 0,0
23.01.2020 11:00:00 4,6 4,1 4,6 7 4 11 6 S 0,0
23.01.2020 10:00:00 3,7 3,5 3,5 11 6 11 6 S 0,0
23.01.2020 09:00:00 3,1 3,0 3,0 7 4 11 6 S 0,0
23.01.2020 08:00:00 3,3 2,8 2,8 11 6 14 8 S 0,0
23.01.2020 07:00:00 2,7 2,5 1,6 11 6 11 6 SSW 0,0
23.01.2020 06:00:00 1,8 1,8 1,2 7 4 14 8 S 0,0
23.01.2020 05:00:00 0,3 0,0 -0,3 11 6 18 10 S 0,0
23.01.2020 04:00:00 0,6 0,5 0,3 11 6 18 10 SSW 0,0
23.01.2020 03:00:00 0,8 0,8 0,3 7 4 11 6 SSW 0,0
23.01.2020 02:00:00 1,3 1,3 0,8 11 6 14 8 SSW 0,0
23.01.2020 01:00:00 1,5 1,4 0,8 7 4 11 6 SSW 0,0
23.01.2020 00:00:00 1,9 1,9 0,8 7 4 11 6 SSW 0,0
22.01.2020 23:00:00 2,5 2,3 1,2 7 4 14 8 SW 0,0
22.01.2020 22:00:00 2,3 1,8 -0,5 7 4 11 6 SW 0,0
22.01.2020 21:00:00 3,5 3,5 -0,2 11 6 11 6 WNW 0,0
22.01.2020 20:00:00 5,4 5,0 2,0 7 4 11 6 NNW 0,0
22.01.2020 19:00:00 5,2 5,0 2,5 11 6 18 10 WNW 0,0
22.01.2020 18:00:00 5,5 4,6 3,5 11 6 18 10 NW 0,0
22.01.2020 17:00:00 5,9 5,0 4,6 14 8 18 10 NNW 0,0
22.01.2020 16:00:00 7,0 5,6 6,9 18 10 25 14 N 0,0
22.01.2020 15:00:00 7,4 6,2 7,6 14 8 29 16 N 0,0
22.01.2020 14:00:00 7,2 6,0 7,3 18 10 25 14 NNW 0,0
22.01.2020 13:00:00 7,6 6,1 8,0 18 10 25 14 NW 0,0
22.01.2020 12:00:00 7,4 6,0 7,6 14 8 22 12 NW 0,0
22.01.2020 11:00:00 7,1 6,0 7,4 14 8 22 12 NW 0,0
22.01.2020 10:00:00 7,1 6,1 6,9 22 12 29 16 NNW 0,0
22.01.2020 09:00:00 7,2 6,6 6,8 14 8 25 14 NW 0,0
22.01.2020 08:00:00 7,0 6,9 6,8 22 12 29 16 NW 0,0
22.01.2020 07:00:00 6,6 6,6 6,5 25 14 29 16 WNW 0,1
22.01.2020 06:00:00 6,1 6,0 6,0 22 12 32 18 W 0,2
22.01.2020 05:00:00 6,0 5,8 5,9 18 10 29 16 W 0,2
22.01.2020 04:00:00 5,9 5,6 5,7 25 14 32 18 W 0,0
22.01.2020 03:00:00 5,4 5,1 5,3 14 8 22 12 WSW 0,0
22.01.2020 02:00:00 5,3 4,5 5,2 14 8 22 12 WSW 0,0
22.01.2020 01:00:00 5,6 3,8 5,3 14 8 22 12 WSW 0,0
22.01.2020 00:00:00 5,5 3,9 5,2 18 10 22 12 WSW 0,0
21.01.2020 23:00:00 5,5 3,7 5,2 14 8 18 10 WSW 0,0
21.01.2020 22:00:00 5,5 3,8 5,3 14 8 22 12 WSW 0,0
21.01.2020 21:00:00 5,7 3,7 5,4 18 10 25 14 W 0,0
21.01.2020 20:00:00 5,7 3,7 5,3 18 10 25 14 W 0,0
21.01.2020 19:00:00 5,6 3,5 5,3 18 10 29 16 W 0,0
21.01.2020 18:00:00 5,7 3,0 5,4 25 14 32 18 W 0,0
21.01.2020 17:00:00 5,6 3,2 5,2 18 10 32 18 W 0,0
21.01.2020 16:00:00 6,0 3,5 5,8 18 10 36 19 W 0,0
21.01.2020 15:00:00 6,3 3,3 6,1 29 16 36 19 W 0,0
21.01.2020 14:00:00 6,3 4,8 6,3 14 8 25 14 WSW 0,0
21.01.2020 13:00:00 5,9 4,9 6,0 18 10 25 14 SW 0,0
21.01.2020 12:00:00 5,1 4,8 5,4 22 12 29 16 SW 0,0
21.01.2020 11:00:00 4,6 4,6 4,6 18 10 32 18 WSW 0,0
21.01.2020 10:00:00 3,7 3,7 3,7 22 12 36 19 SW 0,0
21.01.2020 09:00:00 3,5 3,3 2,8 18 10 32 18 SW 0,0
21.01.2020 08:00:00 3,0 3,0 3,0 22 12 32 18 SW 0,0
21.01.2020 07:00:00 3,6 3,5 3,5 22 12 32 18 SW 0,0
21.01.2020 06:00:00 3,5 3,3 3,0 22 12 32 18 SW 0,0
21.01.2020 05:00:00 3,6 3,4 3,3 18 10 29 16 SW 0,0
21.01.2020 04:00:00 3,5 3,1 2,4 18 10 25 14 SW 0,0
21.01.2020 03:00:00 3,5 3,0 2,4 18 10 29 16 SSW 0,0
21.01.2020 02:00:00 3,5 3,0 2,5 18 10 29 16 SSW 0,0
21.01.2020 01:00:00 3,3 2,5 2,0 14 8 25 14 SSW 0,0
21.01.2020 00:00:00 3,5 2,7 2,5 18 10 25 14 SW 0,0
20.01.2020 23:00:00 4,0 2,8 2,8 18 10 25 14 SSW 0,0
20.01.2020 22:00:00 3,9 2,8 2,6 14 8 22 12 SSW 0,0
20.01.2020 21:00:00 4,0 3,1 2,7 14 8 18 10 SSW 0,0
20.01.2020 20:00:00 4,1 3,4 2,8 11 6 22 12 SSW 0,0
20.01.2020 19:00:00 5,2 3,9 4,2 14 8 22 12 WSW 0,0
20.01.2020 18:00:00 5,7 4,0 4,7 14 8 22 12 WSW 0,0
20.01.2020 17:00:00 6,4 4,3 5,4 18 10 29 16 SW 0,0
20.01.2020 16:00:00 7,0 5,0 6,8 14 8 22 12 SW 0,0
20.01.2020 15:00:00 7,1 5,1 7,1 14 8 22 12 SSW 0,0
20.01.2020 14:00:00 6,8 5,5 6,9 14 8 22 12 SW 0,0
20.01.2020 13:00:00 6,2 5,1 6,4 14 8 18 10 SW 0,0
20.01.2020 12:00:00 5,8 4,8 5,7 14 8 18 10 SW 0,0
20.01.2020 11:00:00 5,6 4,6 5,3 11 6 22 12 SW 0,0
20.01.2020 10:00:00 4,8 4,1 4,6 14 8 18 10 SSW 0,0
20.01.2020 09:00:00 4,5 3,8 4,1 11 6 18 10 SSW 0,0
20.01.2020 08:00:00 4,7 3,8 4,3 11 6 22 12 SW 0,0
20.01.2020 07:00:00 4,8 3,9 4,4 14 8 18 10 WSW 0,0
20.01.2020 06:00:00 4,6 3,8 4,1 11 6 18 10 SW 0,0
20.01.2020 05:00:00 4,6 3,7 3,9 14 8 18 10 WSW 0,0
20.01.2020 04:00:00 4,3 3,6 3,5 11 6 18 10 SW 0,0
20.01.2020 03:00:00 3,7 3,1 1,9 11 6 18 10 SW 0,0
20.01.2020 02:00:00 4,2 3,6 3,1 11 6 18 10 W 0,0
20.01.2020 01:00:00 5,3 4,4 3,8 14 8 18 10 NW 0,0
20.01.2020 00:00:00 5,9 4,6 5,2 18 10 22 12 NW 0,0
19.01.2020 23:00:00 6,4 4,7 5,3 18 10 25 14 NW 0,0
19.01.2020 22:00:00 5,5 4,5 4,1 11 6 18 10 NW 0,0
19.01.2020 21:00:00 6,3 4,8 5,2 14 8 22 12 NW 0,0
19.01.2020 20:00:00 6,1 4,7 4,9 14 8 22 12 NW 0,0
19.01.2020 19:00:00 6,3 4,6 5,2 18 10 29 16 NNW 0,0

tt = temperature
td = dewpoint
tt 5cm = temperature 5cm
ff = wind speed
fx = gusts
dd = wind direction
rr = precipitation

Next stations